Time;durP1;ratioP1;P1;durP2;ratioP2;P2;SDS_P1;SDS_P2;PMS_P1;PMS_P2;Temp;Humidity;BMP_temperature;BMP_pressure;BME280_temperature;BME280_humidity;BME280_pressure;Samples;Min_cycle;Max_cycle;Signal;HPM_P1;HPM_P2
2022/07/11 00:01:11;;;;;;;1.35;0.73;;;;;;;21.32;35.68;99764.87;4498146;31;33502;-58
2022/07/11 00:03:39;;;;;;;2.15;0.80;;;;;;;21.39;35.69;99775.91;4502397;31;32232;-59
2022/07/11 00:06:07;;;;;;;2.67;0.85;;;;;;;21.22;35.96;99780.63;4496947;31;34959;-60
2022/07/11 00:08:34;;;;;;;1.77;0.82;;;;;;;21.26;35.68;99776.50;4494564;31;35229;-62
2022/07/11 00:11:02;;;;;;;2.17;0.80;;;;;;;21.24;36.15;99784.00;4491709;31;32839;-60
2022/07/11 00:13:30;;;;;;;3.20;1.00;;;;;;;21.26;35.60;99779.22;4483605;31;33437;-60
2022/07/11 00:15:57;;;;;;;3.42;1.05;;;;;;;21.17;35.73;99783.88;4496810;31;33157;-60
2022/07/11 00:18:25;;;;;;;2.62;0.88;;;;;;;21.12;36.29;99772.72;4499296;31;35103;-61
2022/07/11 00:20:53;;;;;;;2.12;1.00;;;;;;;21.21;36.10;99778.06;4494840;31;35009;-60
2022/07/11 00:23:20;;;;;;;2.35;1.00;;;;;;;21.19;36.22;99780.97;4497309;31;33801;-60
2022/07/11 00:25:48;;;;;;;2.53;1.10;;;;;;;21.27;35.83;99791.78;4492855;31;33695;-61
2022/07/11 00:28:15;;;;;;;2.62;0.90;;;;;;;21.27;36.27;99789.06;4497362;31;33771;-61
2022/07/11 00:30:43;;;;;;;2.28;0.80;;;;;;;21.25;35.90;99780.25;4491768;31;34088;-62
2022/07/11 00:33:11;;;;;;;3.90;0.93;;;;;;;21.27;35.87;99785.50;4498700;31;33305;-63
2022/07/11 00:35:38;;;;;;;2.45;1.00;;;;;;;21.14;35.95;99784.25;4498327;31;35125;-60
2022/07/11 00:38:06;;;;;;;2.80;1.02;;;;;;;21.02;36.27;99776.69;4496619;31;33991;-61
2022/07/11 00:40:34;;;;;;;5.00;1.00;;;;;;;21.01;36.64;99778.56;4493074;31;33113;-60
2022/07/11 00:43:05;;;;;;;4.78;1.25;;;;;;;20.96;36.47;99783.69;4496331;31;33427;-62
2022/07/11 00:45:33;;;;;;;1.92;0.90;;;;;;;20.71;37.00;99780.31;4497057;31;34742;-63
2022/07/11 00:48:00;;;;;;;3.50;1.10;;;;;;;20.30;38.26;99769.59;4495994;31;33908;-60
2022/07/11 00:50:28;;;;;;;1.40;0.90;;;;;;;20.65;37.41;99768.25;4491114;31;33970;-62
2022/07/11 00:52:56;;;;;;;3.10;0.93;;;;;;;20.68;37.39;99769.78;4495859;31;33137;-60
2022/07/11 00:55:24;;;;;;;2.97;1.33;;;;;;;20.75;37.51;99770.75;4498671;31;33924;-60
2022/07/11 00:57:52;;;;;;;2.45;0.93;;;;;;;20.52;38.04;99769.88;4490053;31;32824;-60
2022/07/11 01:00:20;;;;;;;2.20;0.90;;;;;;;20.59;38.09;99777.12;4493935;31;35245;-62
2022/07/11 01:02:48;;;;;;;2.17;0.95;;;;;;;20.38;38.90;99768.69;4494758;31;34701;-62
2022/07/11 01:05:15;;;;;;;1.50;0.98;;;;;;;20.51;38.08;99770.84;4494458;31;32350;-62
2022/07/11 01:07:43;;;;;;;2.83;0.90;;;;;;;20.57;38.35;99765.56;4495774;31;34232;-60
2022/07/11 01:10:11;;;;;;;1.85;0.90;;;;;;;20.18;39.73;99766.41;4494998;31;34542;-61
2022/07/11 01:12:38;;;;;;;5.55;1.10;;;;;;;20.36;38.38;99768.91;4496657;31;32744;-62
2022/07/11 01:15:07;;;;;;;3.97;1.10;;;;;;;20.34;38.47;99765.50;4496408;31;32498;-60
2022/07/11 01:17:35;;;;;;;2.58;0.98;;;;;;;19.74;39.67;99764.19;4494965;31;32374;-60
2022/07/11 01:20:03;;;;;;;2.47;0.90;;;;;;;20.19;38.94;99768.12;4495789;31;34226;-61
2022/07/11 01:22:37;;;;;;;3.47;1.10;;;;;;;20.12;39.70;99760.84;4495773;31;34770;-62
2022/07/11 01:25:05;;;;;;;3.50;1.12;;;;;;;19.88;39.64;99759.06;4475447;31;32412;-60
2022/07/11 01:27:35;;;;;;;1.62;1.00;;;;;;;19.61;40.39;99765.72;4488227;31;33837;-60
2022/07/11 01:30:04;;;;;;;2.45;1.00;;;;;;;19.69;40.26;99761.16;4494536;31;34748;-60
2022/07/11 01:32:32;;;;;;;4.50;1.45;;;;;;;19.60;40.47;99764.03;4495524;31;31799;-61
2022/07/11 01:35:00;;;;;;;2.45;1.02;;;;;;;18.96;42.95;99772.84;4496414;31;33595;-61
2022/07/11 01:37:27;;;;;;;1.70;0.90;;;;;;;19.27;41.56;99770.31;4498486;31;35020;-62
2022/07/11 01:39:55;;;;;;;2.08;1.02;;;;;;;19.23;41.85;99766.28;4495603;31;33915;-61
2022/07/11 01:42:22;;;;;;;4.68;1.35;;;;;;;18.95;42.69;99760.31;4495472;31;32315;-62
2022/07/11 01:44:50;;;;;;;3.37;0.85;;;;;;;18.88;42.60;99764.72;4498212;31;33687;-63
2022/07/11 01:47:17;;;;;;;2.45;1.27;;;;;;;19.42;41.61;99769.62;4500554;31;34969;-64
2022/07/11 01:49:45;;;;;;;2.65;1.15;;;;;;;18.84;42.89;99761.50;4497793;31;32878;-61
2022/07/11 01:52:13;;;;;;;3.05;1.20;;;;;;;18.61;43.55;99765.81;4499412;31;33582;-61
2022/07/11 01:54:40;;;;;;;2.60;1.20;;;;;;;18.65;43.33;99758.19;4499398;31;33777;-61
2022/07/11 01:57:09;;;;;;;3.45;1.15;;;;;;;19.11;43.15;99764.06;4495885;31;33779;-63
2022/07/11 01:59:37;;;;;;;1.25;0.82;;;;;;;19.55;41.91;99768.09;4496893;31;34131;-61
2022/07/11 02:02:05;;;;;;;3.55;1.50;;;;;;;18.75;44.17;99772.50;4500030;31;33258;-63
2022/07/11 02:04:33;;;;;;;3.03;1.48;;;;;;;18.73;44.37;99769.09;4497940;31;33571;-64
2022/07/11 02:07:01;;;;;;;1.67;0.80;;;;;;;19.09;42.56;99764.22;4497365;31;34060;-62
2022/07/11 02:09:28;;;;;;;2.65;1.20;;;;;;;19.41;42.12;99760.62;4492799;31;32823;-61
2022/07/11 02:11:56;;;;;;;2.85;1.12;;;;;;;19.04;42.98;99762.03;4494547;31;32594;-61
2022/07/11 02:14:24;;;;;;;3.92;1.35;;;;;;;18.85;43.76;99763.19;4486229;31;33991;-61
2022/07/11 02:16:51;;;;;;;2.95;1.23;;;;;;;19.29;42.32;99759.28;4496622;31;34006;-61
2022/07/11 02:19:19;;;;;;;2.03;1.17;;;;;;;18.98;43.43;99756.44;4500260;31;33980;-63
2022/07/11 02:21:47;;;;;;;4.65;1.73;;;;;;;18.87;43.28;99759.44;4498010;31;34687;-62
2022/07/11 02:24:14;;;;;;;4.70;1.48;;;;;;;18.63;44.83;99752.94;4495135;31;32435;-60
2022/07/11 02:26:42;;;;;;;4.22;1.27;;;;;;;18.42;45.00;99755.25;4496612;31;33973;-64
2022/07/11 02:29:10;;;;;;;3.08;1.17;;;;;;;18.55;44.13;99758.34;4496703;31;35247;-61
2022/07/11 02:31:37;;;;;;;3.00;1.00;;;;;;;18.50;44.02;99756.16;4496607;31;34554;-61
2022/07/11 02:34:05;;;;;;;4.07;1.42;;;;;;;18.38;44.37;99755.59;4498287;31;34980;-64
2022/07/11 02:36:32;;;;;;;3.00;1.05;;;;;;;18.63;43.84;99761.94;4497169;31;32794;-63
2022/07/11 02:39:00;;;;;;;1.73;0.80;;;;;;;18.45;44.76;99755.78;4488220;31;33978;-62
2022/07/11 02:41:29;;;;;;;2.87;1.35;;;;;;;18.78;43.45;99764.87;4491405;31;32271;-63
2022/07/11 02:43:57;;;;;;;3.53;1.33;;;;;;;18.41;44.52;99764.41;4497463;31;34909;-62
2022/07/11 02:46:24;;;;;;;3.05;1.50;;;;;;;17.74;46.15;99773.22;4495693;31;34319;-62
2022/07/11 02:48:53;;;;;;;4.35;1.50;;;;;;;17.73;46.65;99786.91;4497617;31;33995;-60
2022/07/11 02:51:21;;;;;;;3.83;1.55;;;;;;;18.28;45.25;99779.28;4497299;31;32329;-60
2022/07/11 02:53:48;;;;;;;4.20;1.50;;;;;;;18.30;44.65;99779.97;4497968;31;34647;-62
2022/07/11 02:56:16;;;;;;;5.57;1.48;;;;;;;18.76;43.32;99772.31;4497311;31;32765;-60
2022/07/11 02:58:44;;;;;;;4.30;1.48;;;;;;;17.93;46.31;99770.31;4498512;31;35203;-61
2022/07/11 03:01:10;;;;;;;3.12;1.37;;;;;;;18.02;44.87;99765.78;4495200;31;34715;-64
2022/07/11 03:03:38;;;;;;;4.57;1.52;;;;;;;17.33;46.41;99764.81;4498606;31;33740;-62
2022/07/11 03:06:06;;;;;;;6.07;1.60;;;;;;;17.27;47.62;99760.06;4496554;31;32542;-60
2022/07/11 03:08:34;;;;;;;4.05;1.52;;;;;;;17.73;45.95;99768.81;4497092;31;34109;-60
2022/07/11 03:11:02;;;;;;;2.80;1.33;;;;;;;17.88;45.17;99766.38;4498833;31;32217;-60
2022/07/11 03:13:35;;;;;;;2.60;1.55;;;;;;;17.49;46.34;99766.78;4499019;31;34888;-63
2022/07/11 03:16:03;;;;;;;4.22;1.33;;;;;;;18.01;45.30;99765.94;4496576;31;32741;-60
2022/07/11 03:18:31;;;;;;;4.45;1.33;;;;;;;17.73;45.60;99765.25;4498382;31;33947;-62
2022/07/11 03:20:58;;;;;;;2.83;1.40;;;;;;;17.96;46.36;99766.44;4498442;31;35113;-61
2022/07/11 03:23:26;;;;;;;4.28;1.55;;;;;;;18.09;46.13;99772.25;4498825;31;33867;-61
2022/07/11 03:25:54;;;;;;;4.70;1.45;;;;;;;17.83;45.29;99769.56;4487876;31;33819;-62
2022/07/11 03:28:22;;;;;;;2.65;1.08;;;;;;;18.29;44.32;99771.97;4496104;31;34078;-60
2022/07/11 03:30:49;;;;;;;3.58;1.10;;;;;;;18.49;44.55;99762.59;4499410;31;32497;-62
2022/07/11 03:33:17;;;;;;;4.93;1.40;;;;;;;18.57;44.10;99762.59;4497232;31;33743;-62
2022/07/11 03:35:44;;;;;;;3.78;1.30;;;;;;;18.39;45.33;99767.28;4496183;31;34115;-61
2022/07/11 03:38:12;;;;;;;5.18;1.35;;;;;;;18.49;44.19;99767.13;4486163;31;34134;-62
2022/07/11 03:40:40;;;;;;;5.07;1.70;;;;;;;19.04;42.86;99766.59;4494002;31;32990;-62
2022/07/11 03:43:08;;;;;;;7.72;1.42;;;;;;;18.79;43.82;99772.00;4498273;31;32171;-62
2022/07/11 03:45:36;;;;;;;5.03;1.70;;;;;;;19.17;42.76;99775.09;4499162;31;33980;-61
2022/07/11 03:48:04;;;;;;;5.90;1.55;;;;;;;18.92;43.41;99779.63;4500414;31;34845;-63
2022/07/11 03:50:32;;;;;;;3.83;1.48;;;;;;;19.31;43.07;99779.81;4498579;31;34129;-61
2022/07/11 03:53:01;;;;;;;3.62;1.15;;;;;;;19.17;42.85;99774.25;4500901;31;34138;-61
2022/07/11 03:55:30;;;;;;;6.10;1.65;;;;;;;19.73;41.46;99775.22;4495871;31;34833;-62
2022/07/11 03:57:58;;;;;;;3.90;1.52;;;;;;;19.75;41.44;99776.75;4493152;31;32916;-62
2022/07/11 04:00:26;;;;;;;5.93;1.70;;;;;;;19.55;41.88;99784.41;4498353;31;33729;-64
2022/07/11 04:02:53;;;;;;;4.85;1.35;;;;;;;19.88;41.24;99788.94;4498822;31;32758;-61
2022/07/11 04:05:21;;;;;;;4.78;1.37;;;;;;;19.84;41.24;99779.44;4498326;31;33710;-65
2022/07/11 04:07:49;;;;;;;3.45;1.40;;;;;;;19.98;41.14;99787.72;4498330;31;32520;-64
2022/07/11 04:10:17;;;;;;;2.67;1.30;;;;;;;20.16;40.85;99784.78;4500931;31;33415;-64
2022/07/11 04:12:45;;;;;;;3.42;1.70;;;;;;;20.28;40.55;99787.94;4503041;31;35022;-61
2022/07/11 04:15:12;;;;;;;6.28;1.87;;;;;;;20.34;40.50;99794.56;4495114;31;34066;-64
2022/07/11 04:17:40;;;;;;;5.72;1.90;;;;;;;20.53;40.09;99796.88;4498256;31;33907;-64
2022/07/11 04:20:08;;;;;;;9.88;1.90;;;;;;;20.27;41.02;99797.13;4500621;31;32479;-62
2022/07/11 04:22:35;;;;;;;5.22;1.45;;;;;;;19.92;41.25;99795.72;4496653;31;32525;-60
2022/07/11 04:25:04;;;;;;;3.85;1.33;;;;;;;20.55;40.50;99797.56;4499909;31;34226;-63
2022/07/11 04:27:31;;;;;;;7.05;1.60;;;;;;;20.70;40.40;99800.34;4486559;31;34707;-63
2022/07/11 04:30:07;;;;;;;4.32;1.45;;;;;;;20.48;40.99;99801.94;4495755;31;32179;-62
2022/07/11 04:32:35;;;;;;;4.55;1.58;;;;;;;20.68;40.94;99803.25;4500701;31;33909;-60
2022/07/11 04:35:03;;;;;;;4.22;1.30;;;;;;;20.33;41.43;99809.19;4492384;31;33566;-65
2022/07/11 04:37:31;;;;;;;2.80;1.35;;;;;;;20.83;40.20;99808.75;4498253;31;34784;-61
2022/07/11 04:39:59;;;;;;;5.70;1.50;;;;;;;21.17;38.74;99800.19;4493164;31;32090;-63
2022/07/11 04:42:26;;;;;;;3.47;1.60;;;;;;;21.07;38.98;99810.50;4498295;31;33669;-60
2022/07/11 04:44:54;;;;;;;4.00;1.55;;;;;;;20.15;41.15;99812.97;4499388;31;34019;-60
2022/07/11 04:47:21;;;;;;;4.03;1.55;;;;;;;20.53;40.67;99810.47;4499704;31;35248;-65
2022/07/11 04:49:51;;;;;;;4.45;1.42;;;;;;;21.11;39.24;99814.53;4499973;31;32219;-63
2022/07/11 04:52:18;;;;;;;4.68;2.37;;;;;;;21.27;39.67;99810.84;4499242;31;35314;-60
2022/07/11 04:54:46;;;;;;;3.87;1.60;;;;;;;21.27;39.20;99810.00;4500731;31;32126;-61
2022/07/11 04:57:14;;;;;;;2.28;1.10;;;;;;;20.89;40.25;99812.66;4497089;31;33807;-60
2022/07/11 04:59:41;;;;;;;3.55;1.42;;;;;;;20.93;40.16;99812.13;4493603;31;32352;-64
2022/07/11 05:02:09;;;;;;;3.60;1.50;;;;;;;20.29;41.70;99816.84;4497001;31;33791;-64
2022/07/11 05:04:37;;;;;;;3.30;1.27;;;;;;;20.95;39.76;99817.37;4500608;31;33941;-61
2022/07/11 05:07:05;;;;;;;6.65;1.45;;;;;;;20.97;39.98;99812.59;4500599;31;34909;-62
2022/07/11 05:09:32;;;;;;;3.75;1.40;;;;;;;20.45;40.70;99805.06;4497727;31;33849;-61
2022/07/11 05:12:01;;;;;;;10.63;2.05;;;;;;;19.90;41.90;99808.63;4483561;31;32985;-61
2022/07/11 05:14:28;;;;;;;4.03;1.67;;;;;;;20.29;42.14;99814.12;4492589;31;33839;-64
2022/07/11 05:16:56;;;;;;;4.40;1.80;;;;;;;19.50;42.73;99810.34;4500566;31;34005;-61
2022/07/11 05:19:23;;;;;;;5.65;1.80;;;;;;;19.13;43.73;99813.56;4499045;31;33505;-61
2022/07/11 05:21:51;;;;;;;6.65;1.80;;;;;;;19.75;42.95;99803.91;4495537;31;34770;-63
2022/07/11 05:24:19;;;;;;;7.43;1.85;;;;;;;19.55;43.35;99808.81;4494261;31;35188;-61
2022/07/11 05:26:47;;;;;;;2.83;1.50;;;;;;;19.48;43.62;99812.38;4498793;31;33993;-60
2022/07/11 05:29:14;;;;;;;5.97;1.65;;;;;;;19.15;43.90;99809.66;4494658;31;32319;-64
2022/07/11 05:31:44;;;;;;;5.70;1.75;;;;;;;19.54;43.02;99823.41;4497859;31;33911;-64
2022/07/11 05:34:12;;;;;;;3.10;1.52;;;;;;;19.99;41.79;99822.00;4499096;31;35556;-61
2022/07/11 05:36:40;;;;;;;5.43;1.90;;;;;;;18.92;44.05;99833.87;4500133;31;33817;-61
2022/07/11 05:39:07;;;;;;;9.20;1.85;;;;;;;19.18;43.42;99825.59;4495581;31;32243;-62
2022/07/11 05:41:35;;;;;;;5.65;1.73;;;;;;;19.69;42.75;99826.31;4496724;31;33905;-61
2022/07/11 05:44:03;;;;;;;4.47;1.52;;;;;;;19.76;42.72;99831.91;4497859;31;32553;-61
2022/07/11 05:46:31;;;;;;;6.78;1.60;;;;;;;19.74;43.07;99832.09;4499923;31;32742;-63
2022/07/11 05:48:59;;;;;;;4.03;1.65;;;;;;;19.29;44.32;99828.00;4495843;31;35169;-61
2022/07/11 05:51:26;;;;;;;5.45;1.83;;;;;;;19.45;44.04;99826.28;4495492;31;34259;-60
2022/07/11 05:53:54;;;;;;;6.90;2.08;;;;;;;18.93;44.18;99829.31;4498659;31;35258;-62
2022/07/11 05:56:22;;;;;;;5.50;1.52;;;;;;;18.94;44.10;99830.97;4497273;31;34327;-63
2022/07/11 05:58:49;;;;;;;9.00;2.00;;;;;;;18.27;46.53;99839.91;4497851;31;34455;-60
2022/07/11 06:01:17;;;;;;;5.25;1.70;;;;;;;18.51;46.05;99849.97;4495103;31;33931;-60
2022/07/11 06:03:46;;;;;;;10.00;1.85;;;;;;;18.82;45.34;99847.59;4497295;31;33656;-61
2022/07/11 06:06:16;;;;;;;5.70;1.92;;;;;;;19.22;43.84;99840.53;4496489;31;34097;-61
2022/07/11 06:08:44;;;;;;;6.60;1.98;;;;;;;19.30;43.92;99848.69;4499205;31;32029;-61
2022/07/11 06:11:14;;;;;;;7.97;2.33;;;;;;;19.67;43.03;99843.78;4497874;31;35071;-61
2022/07/11 06:13:43;;;;;;;5.20;1.67;;;;;;;19.98;42.61;99847.47;4497597;31;32460;-61
2022/07/11 06:16:13;;;;;;;5.78;1.55;;;;;;;19.67;43.88;99847.34;4498568;31;34933;-60
2022/07/11 06:18:41;;;;;;;6.35;1.73;;;;;;;19.65;44.21;99851.28;4488256;31;34217;-61
2022/07/11 06:21:09;;;;;;;3.70;1.48;;;;;;;20.21;43.82;99850.31;4497569;31;32485;-63
2022/07/11 06:23:36;;;;;;;7.00;2.70;;;;;;;19.91;43.95;99860.06;4494344;31;33854;-61
2022/07/11 06:26:04;;;;;;;4.80;1.83;;;;;;;20.08;43.88;99860.03;4492829;31;34042;-60
2022/07/11 06:28:32;;;;;;;5.57;1.62;;;;;;;20.24;42.04;99858.13;4496868;31;34649;-60
2022/07/11 06:31:01;;;;;;;6.95;1.60;;;;;;;20.55;42.47;99867.41;4497509;31;33615;-61
2022/07/11 06:33:29;;;;;;;3.33;1.45;;;;;;;20.14;42.79;99862.06;4496941;31;34068;-61
2022/07/11 06:35:56;;;;;;;4.75;1.62;;;;;;;20.91;41.88;99860.41;4495784;31;34088;-60
2022/07/11 06:38:24;;;;;;;6.32;1.67;;;;;;;21.20;39.97;99863.47;4496151;31;32289;-62
2022/07/11 06:40:53;;;;;;;4.45;1.65;;;;;;;20.96;40.44;99861.75;4496886;31;33565;-61
2022/07/11 06:43:21;;;;;;;4.45;1.67;;;;;;;20.65;41.25;99863.44;4499730;31;33987;-60
2022/07/11 06:45:49;;;;;;;5.97;1.50;;;;;;;20.76;41.56;99859.47;4497670;31;32716;-59
2022/07/11 06:48:17;;;;;;;5.00;1.73;;;;;;;20.59;41.02;99858.72;4499557;31;33634;-60
2022/07/11 06:50:44;;;;;;;5.70;1.70;;;;;;;20.46;41.80;99861.13;4498506;31;34069;-60
2022/07/11 06:53:12;;;;;;;7.18;1.62;;;;;;;20.64;42.27;99866.31;4495331;31;34044;-60
2022/07/11 06:55:40;;;;;;;4.80;1.30;;;;;;;21.17;40.33;99868.25;4496416;31;32687;-60
2022/07/11 06:58:08;;;;;;;7.75;1.60;;;;;;;21.04;40.50;99861.72;4491239;31;33161;-61
2022/07/11 07:00:52;;;;;;;3.95;1.60;;;;;;;20.96;40.70;99869.91;4495653;31;35407;-60
2022/07/11 07:03:20;;;;;;;4.35;1.52;;;;;;;21.38;40.48;99867.62;4494442;31;34081;-61
2022/07/11 07:05:48;;;;;;;2.95;1.37;;;;;;;21.67;39.27;99873.34;4495951;31;35251;-60
2022/07/11 07:08:16;;;;;;;6.05;1.58;;;;;;;21.21;40.12;99873.31;4496549;31;32182;-60
2022/07/11 07:10:43;;;;;;;3.05;1.45;;;;;;;21.17;39.19;99867.41;4493240;31;33420;-60
2022/07/11 07:13:11;;;;;;;6.90;1.80;;;;;;;21.82;38.75;99875.06;4495719;31;33806;-60
2022/07/11 07:15:38;;;;;;;6.82;2.62;;;;;;;22.03;38.26;99870.81;4497962;31;35397;-61
2022/07/11 07:18:06;;;;;;;5.90;1.90;;;;;;;21.98;38.31;99874.06;4498598;31;33803;-61
2022/07/11 07:20:34;;;;;;;6.32;1.60;;;;;;;21.70;38.62;99876.56;4500453;31;32593;-61
2022/07/11 07:23:01;;;;;;;5.00;1.92;;;;;;;20.99;39.05;99878.56;4496769;31;35638;-61
2022/07/11 07:25:29;;;;;;;4.75;1.73;;;;;;;21.26;39.17;99876.38;4497317;31;35151;-61
2022/07/11 07:27:57;;;;;;;4.93;1.25;;;;;;;21.64;38.03;99877.31;4495777;31;33265;-61
2022/07/11 07:30:25;;;;;;;4.18;1.75;;;;;;;21.80;38.54;99879.03;4499831;31;34143;-61
2022/07/11 07:32:52;;;;;;;3.58;1.62;;;;;;;21.75;38.41;99878.72;4498087;31;33113;-62
2022/07/11 07:35:20;;;;;;;6.45;1.67;;;;;;;21.84;38.46;99878.47;4498702;31;33883;-61
2022/07/11 07:37:48;;;;;;;8.25;1.62;;;;;;;22.36;37.49;99878.66;4497204;31;33570;-60
2022/07/11 07:40:15;;;;;;;3.65;1.70;;;;;;;21.87;38.19;99880.84;4496161;31;33807;-62
2022/07/11 07:42:43;;;;;;;5.43;1.83;;;;;;;21.93;38.15;99878.41;4499763;31;32970;-61
2022/07/11 07:45:12;;;;;;;8.55;2.00;;;;;;;22.30;37.30;99877.53;4494129;31;32520;-61
2022/07/11 07:47:41;;;;;;;5.47;1.58;;;;;;;22.17;37.62;99872.72;4494709;31;33254;-63
2022/07/11 07:50:09;;;;;;;6.37;1.70;;;;;;;21.55;38.25;99873.78;4500546;31;33958;-62
2022/07/11 07:52:37;;;;;;;6.12;1.75;;;;;;;21.69;38.78;99871.28;4495582;31;32863;-61
2022/07/11 07:55:05;;;;;;;3.08;1.35;;;;;;;21.44;38.75;99868.75;4485489;32;33901;-61
2022/07/11 07:57:34;;;;;;;5.53;1.60;;;;;;;22.04;37.24;99875.22;4490311;31;34391;-62
2022/07/11 08:02:50;;;;;;;4.20;1.60;;;;;;;21.70;38.13;99867.53;4496061;31;34564;-62
2022/07/11 08:05:18;;;;;;;7.15;1.70;;;;;;;21.26;39.02;99860.03;4484752;31;33961;-61
2022/07/11 08:07:46;;;;;;;4.25;1.33;;;;;;;21.62;38.36;99858.41;4493756;31;33848;-62
2022/07/11 08:10:14;;;;;;;3.60;1.50;;;;;;;22.00;37.43;99855.69;4499603;31;33786;-60
2022/07/11 08:12:42;;;;;;;5.22;1.65;;;;;;;22.15;38.09;99854.81;4493733;31;33990;-62
2022/07/11 08:15:10;;;;;;;6.50;1.50;;;;;;;21.92;37.48;99849.44;4498565;31;34179;-61
2022/07/11 08:17:38;;;;;;;5.93;1.50;;;;;;;22.60;36.36;99858.44;4494547;31;34314;-60
2022/07/11 08:20:06;;;;;;;5.15;1.52;;;;;;;22.57;36.80;99854.22;4493016;31;33945;-61
2022/07/11 08:22:33;;;;;;;7.32;1.55;;;;;;;22.22;36.72;99853.09;4499043;31;33632;-60
2022/07/11 08:25:01;;;;;;;5.25;1.40;;;;;;;22.99;35.26;99855.41;4497431;31;33906;-61
2022/07/11 08:27:29;;;;;;;3.95;1.35;;;;;;;22.53;35.71;99856.44;4484648;31;31626;-61
2022/07/11 08:30:09;;;;;;;8.02;1.87;;;;;;;21.90;37.25;99852.38;4499409;31;32858;-62
2022/07/11 08:32:40;;;;;;;6.22;1.37;;;;;;;21.97;36.64;99853.31;4500452;31;32866;-62
2022/07/11 08:35:11;;;;;;;6.97;1.87;;;;;;;21.81;36.41;99859.78;4497374;31;34183;-63
2022/07/11 08:37:38;;;;;;;3.80;1.35;;;;;;;22.06;36.22;99854.94;4496882;31;34694;-62
2022/07/11 08:40:07;;;;;;;4.75;1.20;;;;;;;22.18;35.13;99852.59;4500241;31;33755;-60
2022/07/11 08:42:43;;;;;;;3.95;1.25;;;;;;;22.05;35.58;99847.81;4487542;31;33625;-62
2022/07/11 08:45:12;;;;;;;5.05;1.73;;;;;;;22.15;35.38;99846.66;4498761;31;35209;-62
2022/07/11 08:47:40;;;;;;;5.47;1.95;;;;;;;22.13;35.69;99841.41;4499051;31;32855;-61
2022/07/11 08:50:12;;;;;;;6.60;1.87;;;;;;;22.37;35.35;99837.56;4499768;31;33799;-60
2022/07/11 08:52:40;;;;;;;3.12;1.40;;;;;;;22.68;34.21;99836.50;4497676;31;34962;-60
2022/07/11 08:55:08;;;;;;;5.60;1.55;;;;;;;23.00;32.96;99840.69;4496273;31;33965;-61
2022/07/11 08:57:36;;;;;;;3.45;1.37;;;;;;;23.30;31.72;99838.69;4496806;31;33716;-63
2022/07/11 09:00:08;;;;;;;4.60;1.52;;;;;;;22.83;32.86;99840.06;4500102;31;32675;-60
2022/07/11 09:02:36;;;;;;;6.68;1.48;;;;;;;23.15;32.34;99829.75;4497552;31;35168;-63
2022/07/11 09:05:07;;;;;;;5.68;1.48;;;;;;;22.54;32.78;99824.59;4498519;31;33056;-61
2022/07/11 09:07:46;;;;;;;3.92;1.42;;;;;;;23.41;32.74;99830.00;4494923;31;32934;-61
2022/07/11 09:10:14;;;;;;;3.92;1.45;;;;;;;23.66;31.80;99829.59;4500706;31;33807;-63
2022/07/11 09:13:10;;;;;;;4.95;1.50;;;;;;;23.36;31.94;99817.97;4493352;31;34012;-63
2022/07/11 09:15:47;;;;;;;8.63;1.70;;;;;;;23.87;29.80;99818.63;4491913;31;34100;-60
2022/07/11 09:18:33;;;;;;;7.72;2.17;;;;;;;23.87;30.40;99825.97;4497389;31;32253;-63
2022/07/11 09:27:13;;;;;;;;;;;;;;;24.69;28.89;99819.75;4460382;32;32890;-62
2022/07/11 09:29:41;;;;;;;4.12;1.20;;;;;;;24.12;28.41;99824.47;4463511;32;33609;-61
2022/07/11 09:32:08;;;;;;;3.62;1.37;;;;;;;24.32;28.78;99813.66;4481834;31;33383;-65
2022/07/11 09:34:36;;;;;;;2.72;1.05;;;;;;;24.65;28.89;99812.97;4493602;31;32665;-60
2022/07/11 09:37:11;;;;;;;4.68;1.23;;;;;;;24.57;26.81;99810.44;4489124;31;33080;-61
2022/07/11 09:39:39;;;;;;;5.12;1.45;;;;;;;23.85;28.13;99808.94;4494443;31;32416;-62
2022/07/11 09:42:06;;;;;;;6.45;1.35;;;;;;;23.77;28.82;99809.94;4496960;31;33886;-61
2022/07/11 09:44:34;;;;;;;7.50;1.50;;;;;;;24.35;28.34;99804.19;4498752;31;33744;-60
2022/07/11 09:47:08;;;;;;;3.42;1.30;;;;;;;24.80;28.17;99800.00;4497861;31;34076;-61
2022/07/11 09:49:38;;;;;;;5.37;1.30;;;;;;;25.10;28.02;99800.50;4498595;31;33059;-61
2022/07/11 09:52:16;;;;;;;6.45;1.60;;;;;;;25.02;27.58;99797.09;4497878;31;34033;-63
2022/07/11 09:55:05;;;;;;;6.62;1.48;;;;;;;25.41;27.35;99790.88;4493160;31;33955;-64
2022/07/11 09:57:48;;;;;;;4.57;1.30;;;;;;;25.52;27.25;99806.69;4497495;31;35042;-61
2022/07/11 10:00:17;;;;;;;5.18;1.25;;;;;;;25.47;25.33;99800.16;4483764;31;33309;-62
2022/07/11 10:02:44;;;;;;;3.75;1.10;;;;;;;25.21;24.84;99790.00;4488557;31;33663;-61
2022/07/11 10:05:12;;;;;;;3.20;1.00;;;;;;;25.12;25.16;99792.09;4499447;31;34000;-61
2022/07/11 10:07:39;;;;;;;5.12;1.48;;;;;;;25.45;24.80;99792.12;4497678;31;34202;-61
2022/07/11 10:10:09;;;;;;;3.58;1.35;;;;;;;25.85;24.09;99794.87;4488693;31;34553;-61
2022/07/11 10:12:37;;;;;;;2.75;1.30;;;;;;;25.32;25.77;99797.59;4498774;31;34593;-61
2022/07/11 10:15:08;;;;;;;6.22;1.45;;;;;;;25.56;25.71;99790.66;4499320;31;34106;-62
2022/07/11 10:17:54;;;;;;;3.78;1.10;;;;;;;25.55;26.66;99791.69;4497413;31;34012;-60
2022/07/11 10:20:22;;;;;;;4.30;1.35;;;;;;;25.45;27.21;99804.97;4497730;31;33649;-61
2022/07/11 10:23:08;;;;;;;3.92;1.48;;;;;;;25.01;26.14;99789.97;4499059;31;34826;-61
2022/07/11 10:26:08;;;;;;;5.62;1.27;;;;;;;24.94;25.27;99797.28;4497612;31;34078;-61
2022/07/11 10:28:49;;;;;;;4.70;1.25;;;;;;;24.70;24.58;99790.50;4496411;31;34052;-61
2022/07/11 10:31:24;;;;;;;3.30;1.25;;;;;;;24.48;25.54;99787.03;4499021;31;33472;-62
2022/07/11 10:34:05;;;;;;;;;;;;;;;24.97;25.92;99784.03;4497195;31;33317;-60
2022/07/11 10:36:37;;;;;;;7.50;1.73;;;;;;;25.45;26.06;99777.59;4496746;31;35421;-62
2022/07/11 10:39:27;;;;;;;4.78;1.85;;;;;;;25.21;26.74;99779.06;4489090;31;34614;-62
2022/07/11 10:41:59;;;;;;;3.42;1.40;;;;;;;25.70;25.36;99770.41;4484448;31;34542;-62
2022/07/11 10:44:29;;;;;;;6.82;2.12;;;;;;;25.42;24.57;99769.78;4495459;31;35871;-62
2022/07/11 10:46:56;;;;;;;10.50;1.50;;;;;;;25.46;24.90;99776.56;4479445;31;32550;-61
2022/07/11 10:49:47;;;;;;;5.22;1.50;;;;;;;25.68;24.53;99780.75;4499220;31;34093;-62
2022/07/11 10:52:21;;;;;;;6.03;1.30;;;;;;;24.96;25.87;99773.28;4485793;31;33445;-61
2022/07/11 10:55:18;;;;;;;6.03;1.60;;;;;;;25.25;25.07;99764.72;4495465;31;33778;-61
2022/07/11 10:58:07;;;;;;;8.15;2.33;;;;;;;25.14;27.23;99751.66;4470845;31;32963;-60
2022/07/11 11:00:34;;;;;;;5.12;1.55;;;;;;;25.46;26.51;99760.09;4478410;32;32590;-60
2022/07/11 11:03:06;;;;;;;5.25;1.30;;;;;;;25.52;25.82;99767.47;4482421;31;33679;-62
2022/07/11 11:05:53;;;;;;;6.70;1.62;;;;;;;25.87;25.13;99762.59;4482078;31;32390;-62
2022/07/11 11:11:01;;;;;;;5.62;1.60;;;;;;;25.95;25.29;99762.38;4497747;31;34919;-62
2022/07/11 11:13:30;;;;;;;5.37;1.48;;;;;;;25.87;26.46;99761.75;4499121;31;33312;-60
2022/07/11 11:16:02;;;;;;;5.62;1.67;;;;;;;25.97;25.37;99756.66;4495937;31;33660;-60
2022/07/11 11:18:36;;;;;;;9.32;2.08;;;;;;;25.82;25.81;99754.19;4495435;31;34072;-60
2022/07/11 11:21:06;;;;;;;7.68;1.83;;;;;;;25.56;26.37;99764.09;4496079;31;32862;-60
2022/07/11 11:23:59;;;;;;;5.45;1.40;;;;;;;25.10;26.38;99755.81;4498133;31;32319;-60
2022/07/11 11:26:51;;;;;;;6.03;2.12;;;;;;;25.27;26.63;99757.16;4496572;31;33903;-62
2022/07/11 11:29:21;;;;;;;7.18;1.40;;;;;;;25.14;26.94;99762.63;4496365;31;35054;-62
2022/07/11 11:31:54;;;;;;;4.28;1.58;;;;;;;25.04;26.62;99763.00;4497964;31;33227;-61
2022/07/11 11:34:23;;;;;;;5.78;1.52;;;;;;;24.45;27.12;99766.41;4497408;31;32129;-61
2022/07/11 11:36:55;;;;;;;6.53;1.62;;;;;;;24.44;27.23;99767.47;4495078;31;33839;-62
2022/07/11 11:39:34;;;;;;;6.80;1.40;;;;;;;24.85;26.49;99767.38;4480761;31;33620;-61
2022/07/11 11:42:11;;;;;;;4.10;1.27;;;;;;;24.34;27.67;99769.69;4492219;31;34337;-62
2022/07/11 11:44:51;;;;;;;4.87;1.40;;;;;;;24.74;26.26;99767.97;4493170;31;32064;-63
2022/07/11 11:47:19;;;;;;;4.28;1.75;;;;;;;24.74;26.36;99773.44;4495120;31;35329;-60
2022/07/11 11:49:47;;;;;;;5.60;1.00;;;;;;;24.73;27.45;99771.75;4495148;31;34895;-60
2022/07/11 11:52:15;;;;;;;11.02;2.12;;;;;;;24.98;26.45;99779.41;4498730;31;34023;-61
2022/07/11 11:54:45;;;;;;;8.38;1.48;;;;;;;24.21;26.65;99778.69;4496364;31;32413;-61
2022/07/11 11:57:13;;;;;;;6.05;2.10;;;;;;;23.90;27.16;99774.50;4494480;31;34945;-63